Aspen-Pitkin Co/Sardy Field
KASE : now visible

Airfield :











YOU CAN JOIN US ON...

 
LOGIN :

Register | Disclaimer

   EN    FR    IT 

 









Legend :    VFR   Marginal VFR   IFR   Intensive IFR   Very Intensive IFR
Visi :
Ceiling :
>= 8 km
>= 3000ft
5 to 8 km
1000 to 3000 ft
1500m to 5 km
500 to 1000 ft
800 to 1500m
200 to 500 ft
< 800m
< 200 ft
Symbols :   Thunderstorms  Fog  Heavy snow  Heavy precipitations  Wind > 20 kt







- Airport Elevation : 7820 ft


KASE - Aspen-Pitkin Co/Sardy Field

CURRENT METAR :
  • 210953Z AUTO 36006KT 1 1/2SM -SN BR FEW003 OVC010 00/M01 A2964 RMK AO2 SLP998 P0001 T00001011

EXPIRED METARs :
  • 210944Z AUTO 36006KT 2SM -SN BR FEW005 BKN010 OVC014 01/M01 A2964 RMK AO2 P0000 T00061011
  • 210928Z AUTO 36007KT 2 1/2SM -SN BR OVC012 01/M01 A2964 RMK AO2 P0000 T00061011
  • 210853Z AUTO 35004KT 7SM -SN FEW003 OVC014 01/M01 A2964 RMK AO2 SLP993 P0000 60000 T00061011 56016
  • 210833Z AUTO 36005KT 8SM -SN FEW003 SCT006 OVC014 01/M01 A2963 RMK AO2 P0000 T00061006
  • 210807Z AUTO 36004KT 7SM -SN SCT002 BKN006 OVC016 01/M01 A2964 RMK AO2 CIG 004V009 P0000 T00111006
  • 210753Z AUTO 34004KT 8SM -SN SCT006 OVC017 01/M01 A2965 RMK AO2 SNB20 SLP998 P0000 T00111006
  • 210740Z AUTO 34003KT 8SM -SN FEW006 OVC015 01/M01 A2966 RMK AO2 SNB20 P0000 T00111006

TAF KASE
Valid from the 21 at 10:00 until the 22 at 06:00 UTC


211023Z 2110/2206 36006KT 2SM -SHSN BR SCT005 OVC010
TEMPO 2110/2114 1SM -SN BR BKN005
FM211800 30010KT 6SM -SHSN SCT009 BKN029
KZDV FIR / North America



MET'MAP, your aeronautical weather chart ! - Copyright ORBIFLY December 2007 - Disclaimer

ORBIFLY MET'MAP TEAM :

Programming & Development : Alexandra Zaïnal
Concept & Development : Baudouin d'Aumeries
Co-Development & Prog : Marc-Olivier Méhu
Technical & hardware support : Manuel Goepfert

Contact : metmap@orbifly.com




SOURCES & CREDITS :

   NOAA       Earth
Advisory